Cranbourne Gardens, Victoria

2:50 PM AEDT on March 01, 2015 (GMT +1100)
Cranbourne East (Hunt Club) | Change Station
CLOSE
Current Station
Personal Weather Station
Location: Cranbourne East, VICTORIA
Elevation: 157 ft
Nearby Weather Stations

Elev 157 ft 38.11 °S, 145.30 °E | Updated 1 minute ago

Mostly Cloudy
Mostly Cloudy
73.8 °F
Feels Like 77 °F
N
5.4
Wind Variable Wind from East
Gusts 8.3 mph

Today
High -- | Low -- °F
--% Chance of Precip.
Yesterday
High -- | Low -- °F
Precip. -- in
7:02 AM 7:59 PM
Waxing Gibbous, 82% visible
Pressure 29.98 in
Visibility 6.2 miles
Clouds Mostly Cloudy 3400 ft
Heat Index 77 °F
Dew Point 54 °F
Humidity 50%
Rainfall 0.19 in
Snow Depth Not available.
UV 6 out of 12
Pollen Not available.
Air Quality Not available.
Flu Activity Not available.
METAR YMML 010330Z 17017KT 9999 BKN034 20/11 Q1015 NOSIG

More Conditions Fewer Conditions

Pressure 29.98 in
Visibility 6.2 miles
Clouds Mostly Cloudy 3400 ft
Heat Index 77 °F
Dew Point 54 °F
Humidity 50%
Rainfall 0.19 in
Snow Depth Not available.
UV 6 out of 12
Pollen Not available.
Air Quality Not available.
Flu Activity Not available.
METAR YMML 010330Z 17017KT 9999 BKN034 20/11 Q1015 NOSIG

More Conditions Fewer Conditions

10-Day Weather Forecast

Almanac

Astronomy

Mar. 01, 2015 Rise Set
Actual Time
Civil Twilight
Nautical Twilight
Astronomical Twilight
Moon
Length of Visible Light
Length of Day
Tomorrow will be .
, % of the Moon is Illuminated

Today's Extremes

Country Highs Country Lows

Community

WunderPhotos

Upload Photos

1,801,289 photos uploaded!

WunderBlogs® & News

Nearby

Air Quality

  Air Quality AQ Index Pollutant
Not available.

Snow Depth

Station Depth Elevation

Earthquake Activity

City Distance Mag. Time & Date
Minimum magnitude displayed is 2.5.

Coastal Water Temperatures

Place Temperature

Nearby Weather Stations